createdAt,value
2023-03-07T00:01:09.635Z,13.00
2023-03-07T00:06:31.685Z,14.40
2023-03-07T00:11:53.310Z,15.00
2023-03-07T00:17:15.068Z,15.27
2023-03-07T00:22:37.261Z,15.93
2023-03-07T00:27:58.929Z,15.90
2023-03-07T00:33:20.561Z,15.00
2023-03-07T00:38:42.473Z,16.57
2023-03-07T00:44:04.070Z,16.27
2023-03-07T00:49:26.092Z,15.47
2023-03-07T00:54:47.915Z,16.27
2023-03-07T01:00:11.077Z,16.60
2023-03-07T01:05:32.710Z,16.20
2023-03-07T01:11:00.192Z,16.37
2023-03-07T01:16:25.818Z,15.67
2023-03-07T01:21:47.404Z,16.43
2023-03-07T01:27:10.570Z,16.80
2023-03-07T01:32:32.698Z,16.60
2023-03-07T01:37:55.502Z,16.30
2023-03-07T01:43:36.005Z,15.63
2023-03-07T01:49:24.739Z,16.17
2023-03-07T01:55:00.184Z,17.03
2023-03-07T02:00:30.007Z,15.17
2023-03-07T02:05:59.234Z,14.93
2023-03-07T02:11:21.291Z,15.50
2023-03-07T02:16:43.210Z,15.03
2023-03-07T02:22:18.442Z,15.53
2023-03-07T02:27:41.376Z,11.47
2023-03-07T02:33:03.328Z,14.10
2023-03-07T02:38:25.456Z,12.77
2023-03-07T02:43:47.288Z,13.93
2023-03-07T02:49:08.950Z,9.63
2023-03-07T02:54:31.234Z,12.57
2023-03-07T02:59:53.694Z,12.13
2023-03-07T03:05:15.385Z,13.17
2023-03-07T03:10:36.871Z,12.43
2023-03-07T03:15:59.924Z,9.90
2023-03-07T03:21:21.791Z,11.80
2023-03-07T03:26:43.350Z,11.17
2023-03-07T03:32:05.335Z,12.50
2023-03-07T03:37:27.375Z,12.20
2023-03-07T03:42:51.074Z,10.00
2023-03-07T03:48:14.266Z,11.83
2023-03-07T03:53:39.693Z,12.17
2023-03-07T03:59:01.378Z,12.37
2023-03-07T04:04:23.680Z,10.00
2023-03-07T04:09:45.731Z,11.90
2023-03-07T04:15:08.085Z,11.87
2023-03-07T04:20:30.004Z,10.83
2023-03-07T04:25:56.444Z,11.60
2023-03-07T04:31:27.971Z,11.20
2023-03-07T04:36:51.657Z,8.03
2023-03-07T04:42:13.288Z,11.57
2023-03-07T04:47:35.025Z,12.23
2023-03-07T04:52:57.166Z,9.33
2023-03-07T04:58:19.542Z,11.53
2023-03-07T05:03:41.754Z,9.93
2023-03-07T05:09:03.971Z,11.80
2023-03-07T05:14:26.228Z,11.67
2023-03-07T05:19:48.089Z,10.17
2023-03-07T05:25:10.194Z,9.60
2023-03-07T05:30:32.261Z,9.80
2023-03-07T05:35:55.758Z,10.60
2023-03-07T05:41:18.145Z,8.80
2023-03-07T05:46:39.973Z,9.63
2023-03-07T05:52:01.636Z,11.10
2023-03-07T05:57:23.705Z,9.90
2023-03-07T06:02:45.901Z,9.30
2023-03-07T06:08:09.448Z,9.53
2023-03-07T06:13:31.366Z,6.70
2023-03-07T06:18:52.651Z,8.63
2023-03-07T06:24:14.696Z,9.23
2023-03-07T06:29:37.953Z,6.07
2023-03-07T06:34:59.626Z,8.90
2023-03-07T06:40:22.729Z,8.43
2023-03-07T06:45:44.339Z,8.70
2023-03-07T06:51:09.530Z,8.00
2023-03-07T06:56:34.938Z,8.17
2023-03-07T07:01:57.413Z,7.80
2023-03-07T07:07:20.113Z,7.83
2023-03-07T07:12:42.146Z,6.20
2023-03-07T07:18:04.456Z,5.80
2023-03-07T07:23:27.727Z,7.87
2023-03-07T07:28:49.415Z,5.87
2023-03-07T07:34:11.133Z,7.77
2023-03-07T07:39:33.006Z,6.03
2023-03-07T07:44:54.972Z,6.37
2023-03-07T07:50:18.074Z,5.27
2023-03-07T07:55:39.657Z,7.63
2023-03-07T08:01:01.313Z,5.80
2023-03-07T08:06:25.502Z,5.83
2023-03-07T08:11:47.173Z,5.03
2023-03-07T08:17:09.007Z,5.83
2023-03-07T08:22:30.625Z,5.93
2023-03-07T08:27:55.285Z,5.53
2023-03-07T08:33:16.786Z,5.90
2023-03-07T08:38:38.532Z,4.47
2023-03-07T08:44:00.245Z,7.07
2023-03-07T08:49:21.731Z,4.60
2023-03-07T08:54:43.440Z,7.03
2023-03-07T09:00:08.902Z,6.83
2023-03-07T09:05:30.920Z,7.03
2023-03-07T09:10:53.107Z,7.67
2023-03-07T09:16:14.583Z,5.83
2023-03-07T09:21:36.050Z,6.77
2023-03-07T09:26:57.859Z,5.27
2023-03-07T09:32:19.411Z,7.47
2023-03-07T09:37:41.230Z,6.73
2023-03-07T09:43:15.380Z,7.77
2023-03-07T09:49:10.599Z,6.97
2023-03-07T09:55:05.197Z,6.80
2023-03-07T10:00:42.979Z,8.17
2023-03-07T10:06:16.563Z,7.93
2023-03-07T10:11:52.081Z,7.87
2023-03-07T10:17:42.992Z,7.57
2023-03-07T10:23:33.057Z,7.73
2023-03-07T10:28:56.882Z,5.87
2023-03-07T10:34:27.381Z,5.97
2023-03-07T10:39:56.938Z,7.30
2023-03-07T10:45:19.001Z,8.23
2023-03-07T10:50:58.847Z,6.60
2023-03-07T10:56:20.689Z,6.00
2023-03-07T11:01:56.902Z,6.50
2023-03-07T11:07:30.796Z,7.53
2023-03-07T11:12:52.673Z,6.30
2023-03-07T11:18:39.647Z,4.37
2023-03-07T11:24:20.411Z,7.10
2023-03-07T11:29:42.073Z,5.70
2023-03-07T11:35:15.400Z,6.13
2023-03-07T11:40:56.986Z,6.47
2023-03-07T11:46:24.504Z,5.97
2023-03-07T11:52:16.644Z,4.30
2023-03-07T11:58:03.150Z,3.37
2023-03-07T12:03:58.003Z,3.73
2023-03-07T12:09:45.363Z,7.20
2023-03-07T12:15:06.578Z,5.37
2023-03-07T12:20:51.948Z,3.40
2023-03-07T12:26:42.918Z,7.40
2023-03-07T12:32:16.833Z,6.43
2023-03-07T12:37:44.600Z,4.83
2023-03-07T12:43:15.464Z,6.87
2023-03-07T12:48:49.009Z,6.03
2023-03-07T12:54:21.442Z,5.87
2023-03-07T12:59:45.233Z,6.70
2023-03-07T13:05:07.014Z,3.60
2023-03-07T13:10:28.881Z,5.07
2023-03-07T13:16:07.052Z,5.00
2023-03-07T13:21:33.025Z,6.33
2023-03-07T13:26:56.014Z,5.27
2023-03-07T13:32:51.397Z,5.90
2023-03-07T13:38:31.154Z,5.60
2023-03-07T13:44:00.034Z,5.47
2023-03-07T13:49:42.254Z,5.70
2023-03-07T13:55:16.918Z,5.30
2023-03-07T14:00:41.909Z,4.57
2023-03-07T14:06:31.147Z,5.53
2023-03-07T14:12:14.297Z,4.20
2023-03-07T14:17:46.651Z,4.77
2023-03-07T14:23:53.364Z,5.37
2023-03-07T14:29:24.822Z,5.33
2023-03-07T14:34:49.511Z,5.47
2023-03-07T14:40:32.560Z,5.57
2023-03-07T14:46:02.435Z,5.07
2023-03-07T14:51:28.229Z,4.60
2023-03-07T14:56:53.201Z,3.77
2023-03-07T15:02:18.838Z,4.80
2023-03-07T15:07:40.493Z,4.90
2023-03-07T15:13:07.250Z,5.10
2023-03-07T15:18:35.777Z,4.67
2023-03-07T15:23:59.295Z,4.67
2023-03-07T15:29:24.580Z,5.60
2023-03-07T15:34:46.037Z,4.90
2023-03-07T15:40:11.162Z,5.80
2023-03-07T15:45:34.493Z,4.70
2023-03-07T15:50:59.150Z,5.10
2023-03-07T15:56:34.604Z,4.27
2023-03-07T16:01:55.919Z,4.80
2023-03-07T16:07:18.397Z,4.83
2023-03-07T16:12:46.634Z,5.13
2023-03-07T16:18:08.246Z,5.67
2023-03-07T16:23:31.526Z,4.87
2023-03-07T16:28:54.438Z,5.30
2023-03-07T16:34:19.325Z,5.13
2023-03-07T16:39:41.364Z,5.40
2023-03-07T16:45:04.926Z,4.43
2023-03-07T16:50:30.190Z,4.23
2023-03-07T16:55:53.438Z,5.63
2023-03-07T17:01:16.148Z,6.37
2023-03-07T17:06:39.790Z,5.50
2023-03-07T17:12:01.286Z,5.77
2023-03-07T17:17:27.834Z,5.70
2023-03-07T17:22:50.763Z,5.30
2023-03-07T17:28:15.318Z,5.90
2023-03-07T17:33:36.779Z,5.50
2023-03-07T17:38:58.358Z,5.50
2023-03-07T17:44:20.193Z,5.10
2023-03-07T17:49:41.925Z,5.70
2023-03-07T17:55:03.981Z,7.00
2023-03-07T18:00:26.045Z,6.57
2023-03-07T18:05:47.573Z,5.90
2023-03-07T18:11:13.830Z,4.83
2023-03-07T18:16:35.560Z,6.90
2023-03-07T18:21:57.221Z,6.60
2023-03-07T18:27:18.918Z,6.77
2023-03-07T18:32:40.674Z,6.80
2023-03-07T18:38:02.281Z,6.13
2023-03-07T18:43:23.996Z,7.40
2023-03-07T18:48:46.508Z,6.77
2023-03-07T18:54:09.199Z,6.80
2023-03-07T18:59:33.495Z,6.60
2023-03-07T19:04:55.130Z,7.13
2023-03-07T19:10:17.097Z,6.27
2023-03-07T19:15:38.705Z,7.50
2023-03-07T19:21:00.556Z,7.40
2023-03-07T19:26:22.810Z,7.40
2023-03-07T19:31:44.938Z,7.73
2023-03-07T19:37:06.749Z,9.13
2023-03-07T19:42:28.242Z,9.13
2023-03-07T19:47:50.019Z,8.70
2023-03-07T19:53:11.579Z,8.30
2023-03-07T19:58:35.523Z,10.37
2023-03-07T20:03:57.688Z,10.20
2023-03-07T20:09:19.275Z,10.40
2023-03-07T20:14:43.202Z,9.93
2023-03-07T20:20:08.121Z,8.93
2023-03-07T20:25:30.731Z,8.50
2023-03-07T20:30:52.255Z,8.63
2023-03-07T20:36:19.638Z,7.33
2023-03-07T20:41:43.074Z,6.97
2023-03-07T20:47:04.738Z,7.20
2023-03-07T20:52:26.362Z,6.93
2023-03-07T20:57:49.211Z,6.27
2023-03-07T21:03:13.649Z,5.07
2023-03-07T21:08:36.657Z,4.80
2023-03-07T21:13:58.663Z,4.50
2023-03-07T21:19:20.263Z,4.20
2023-03-07T21:24:41.830Z,4.00
2023-03-07T21:30:04.702Z,3.00
2023-03-07T21:35:26.682Z,2.47
2023-03-07T21:40:49.705Z,2.67
2023-03-07T21:46:13.293Z,1.77
2023-03-07T21:51:37.619Z,2.20
2023-03-07T21:56:59.107Z,1.90
2023-03-07T22:02:23.114Z,1.60
2023-03-07T22:07:45.067Z,1.17
2023-03-07T22:13:07.036Z,1.23
2023-03-07T22:18:29.114Z,1.30
2023-03-07T22:23:50.442Z,1.30
2023-03-07T22:29:12.144Z,1.30
2023-03-07T22:34:33.712Z,1.57
2023-03-07T22:39:55.245Z,1.60
2023-03-07T22:45:16.781Z,1.60
2023-03-07T22:50:39.533Z,2.00
2023-03-07T22:56:01.679Z,2.23
2023-03-07T23:01:26.374Z,2.17
2023-03-07T23:06:47.830Z,2.20
2023-03-07T23:12:09.540Z,1.97
2023-03-07T23:17:31.170Z,2.23
2023-03-07T23:22:53.396Z,2.10
2023-03-07T23:28:14.991Z,1.93
2023-03-07T23:33:36.520Z,1.90
2023-03-07T23:38:59.954Z,1.87
2023-03-07T23:44:21.443Z,1.60
2023-03-07T23:49:43.271Z,1.97
2023-03-07T23:55:05.436Z,2.07
